createdAt,value
2023-04-09T00:00:17.807Z,3.88
2023-04-09T00:01:06.117Z,3.89
2023-04-09T00:01:53.113Z,3.92
2023-04-09T00:02:40.355Z,3.93
2023-04-09T00:03:27.606Z,3.92
2023-04-09T00:04:14.709Z,4.03
2023-04-09T00:05:02.689Z,3.99
2023-04-09T00:05:49.703Z,3.95
2023-04-09T00:06:36.620Z,3.88
2023-04-09T00:07:23.538Z,3.82
2023-04-09T00:08:11.045Z,3.87
2023-04-09T00:08:58.224Z,3.86
2023-04-09T00:09:45.174Z,3.89
2023-04-09T00:10:32.190Z,3.95
2023-04-09T00:11:19.182Z,3.91
2023-04-09T00:12:06.240Z,3.88
2023-04-09T00:12:53.190Z,3.82
2023-04-09T00:13:40.259Z,3.87
2023-04-09T00:14:27.300Z,3.88
2023-04-09T00:15:24.343Z,3.90
2023-04-09T00:16:17.950Z,3.91
2023-04-09T00:17:04.908Z,3.84
2023-04-09T00:17:52.675Z,3.98
2023-04-09T00:18:39.670Z,3.86
2023-04-09T00:19:26.877Z,3.93
2023-04-09T00:20:15.199Z,3.93
2023-04-09T00:21:02.595Z,3.93
2023-04-09T00:21:49.673Z,3.85
2023-04-09T00:22:36.779Z,3.87
2023-04-09T00:23:23.802Z,3.95
2023-04-09T00:24:10.982Z,3.92
2023-04-09T00:24:58.010Z,3.94
2023-04-09T00:25:44.979Z,3.92
2023-04-09T00:26:32.201Z,3.92
2023-04-09T00:27:19.349Z,3.89
2023-04-09T00:28:06.310Z,3.88
2023-04-09T00:28:53.544Z,3.93
2023-04-09T00:29:40.699Z,3.99
2023-04-09T00:30:31.093Z,3.89
2023-04-09T00:31:19.444Z,3.87
2023-04-09T00:32:07.936Z,3.91
2023-04-09T00:32:54.945Z,3.92
2023-04-09T00:33:42.300Z,3.96
2023-04-09T00:34:29.201Z,3.97
2023-04-09T00:35:17.777Z,3.95
2023-04-09T00:36:05.131Z,3.97
2023-04-09T00:36:52.195Z,3.94
2023-04-09T00:37:39.300Z,3.93
2023-04-09T00:38:26.273Z,3.93
2023-04-09T00:39:13.202Z,3.93
2023-04-09T00:40:00.494Z,3.95
2023-04-09T00:40:51.480Z,3.97
2023-04-09T00:41:38.399Z,3.93
2023-04-09T00:42:26.288Z,3.91
2023-04-09T00:43:13.178Z,3.92
2023-04-09T00:44:00.326Z,3.81
2023-04-09T00:44:47.287Z,3.81
2023-04-09T00:45:34.402Z,3.78
2023-04-09T00:46:21.531Z,3.71
2023-04-09T00:47:08.584Z,3.62
2023-04-09T00:47:55.934Z,3.73
2023-04-09T00:48:42.991Z,3.79
2023-04-09T00:49:30.039Z,3.84
2023-04-09T00:50:18.136Z,3.89
2023-04-09T00:51:05.210Z,3.89
2023-04-09T00:51:52.614Z,3.88
2023-04-09T00:52:39.888Z,3.88
2023-04-09T00:53:26.881Z,3.85
2023-04-09T00:54:14.218Z,3.76
2023-04-09T00:55:01.938Z,3.75
2023-04-09T00:55:48.916Z,3.78
2023-04-09T00:56:36.728Z,3.79
2023-04-09T00:57:23.679Z,3.75
2023-04-09T00:58:10.723Z,3.76
2023-04-09T00:58:57.639Z,3.76
2023-04-09T00:59:45.025Z,3.80
2023-04-09T01:00:32.030Z,3.81
2023-04-09T01:01:19.120Z,3.84
2023-04-09T01:02:06.198Z,3.78
2023-04-09T01:02:54.169Z,3.81
2023-04-09T01:03:42.326Z,3.76
2023-04-09T01:04:29.338Z,3.71
2023-04-09T01:05:16.425Z,3.77
2023-04-09T01:06:08.948Z,3.78
2023-04-09T01:06:59.779Z,3.80
2023-04-09T01:08:08.324Z,3.80
2023-04-09T01:09:02.387Z,3.73
2023-04-09T01:10:19.432Z,3.66
2023-04-09T01:11:28.448Z,3.66
2023-04-09T01:12:26.676Z,3.71
2023-04-09T01:13:39.369Z,3.77
2023-04-09T01:14:39.627Z,3.74
2023-04-09T01:15:30.197Z,3.62
2023-04-09T01:16:17.049Z,3.65
2023-04-09T01:17:06.805Z,3.71
2023-04-09T01:18:30.477Z,3.78
2023-04-09T01:19:49.235Z,3.83
2023-04-09T01:20:41.040Z,3.77
2023-04-09T01:21:32.234Z,3.76
2023-04-09T01:22:50.594Z,3.79
2023-04-09T01:24:08.255Z,3.84
2023-04-09T01:25:12.068Z,3.78
2023-04-09T01:26:30.620Z,3.82
2023-04-09T01:27:18.144Z,3.81
2023-04-09T01:28:34.609Z,3.78
2023-04-09T01:29:24.075Z,3.85
2023-04-09T01:30:11.493Z,3.85
2023-04-09T01:31:02.289Z,3.79
2023-04-09T01:31:49.944Z,3.84
2023-04-09T01:32:39.345Z,3.82
2023-04-09T01:33:26.962Z,3.81
2023-04-09T01:34:14.694Z,3.75
2023-04-09T01:35:01.960Z,3.71
2023-04-09T01:35:50.136Z,3.62
2023-04-09T01:36:37.502Z,3.65
2023-04-09T01:37:24.446Z,3.71
2023-04-09T01:38:11.813Z,3.73
2023-04-09T01:39:01.045Z,3.76
2023-04-09T01:39:48.126Z,3.80
2023-04-09T01:40:35.116Z,3.77
2023-04-09T01:41:22.997Z,3.80
2023-04-09T01:42:11.503Z,3.78
2023-04-09T01:42:58.758Z,3.81
2023-04-09T01:43:46.193Z,3.83
2023-04-09T01:44:33.498Z,3.84
2023-04-09T01:45:21.526Z,3.90
2023-04-09T01:46:10.339Z,3.94
2023-04-09T01:46:59.113Z,3.86
2023-04-09T01:47:46.194Z,3.86
2023-04-09T01:48:34.061Z,3.87
2023-04-09T01:49:21.206Z,3.90
2023-04-09T01:50:08.503Z,3.90
2023-04-09T01:50:55.850Z,3.86
2023-04-09T01:51:43.006Z,3.79
2023-04-09T01:52:30.099Z,3.81
2023-04-09T01:53:17.089Z,3.86
2023-04-09T01:54:04.889Z,3.88
2023-04-09T01:54:51.885Z,3.89
2023-04-09T01:55:39.675Z,3.93
2023-04-09T01:56:27.416Z,3.96
2023-04-09T01:57:14.347Z,3.95
2023-04-09T01:58:01.260Z,3.93
2023-04-09T01:58:48.235Z,3.91
2023-04-09T01:59:35.223Z,3.95
2023-04-09T02:00:22.327Z,3.92
2023-04-09T02:01:21.339Z,3.94
2023-04-09T02:02:17.952Z,3.90
2023-04-09T02:03:14.002Z,3.93
2023-04-09T02:04:06.043Z,3.91
2023-04-09T02:04:53.947Z,4.02
2023-04-09T02:05:52.962Z,4.01
2023-04-09T02:06:45.189Z,3.97
2023-04-09T02:07:52.035Z,3.97
2023-04-09T02:08:39.221Z,3.97
2023-04-09T02:09:28.925Z,3.92
2023-04-09T02:10:17.644Z,3.92
2023-04-09T02:11:06.975Z,3.89
2023-04-09T02:11:54.321Z,3.88
2023-04-09T02:12:44.837Z,3.93
2023-04-09T02:13:33.038Z,3.88
2023-04-09T02:14:21.480Z,3.85
2023-04-09T02:15:09.079Z,3.83
2023-04-09T02:15:57.043Z,3.85
2023-04-09T02:16:44.018Z,3.87
2023-04-09T02:17:30.970Z,3.89
2023-04-09T02:18:36.256Z,3.87
2023-04-09T02:19:23.210Z,3.90
2023-04-09T02:20:10.528Z,3.82
2023-04-09T02:20:58.847Z,3.83
2023-04-09T02:21:46.652Z,3.78
2023-04-09T02:22:33.589Z,3.80
2023-04-09T02:23:20.827Z,3.80
2023-04-09T02:24:07.884Z,3.72
2023-04-09T02:24:54.870Z,3.75
2023-04-09T02:25:41.897Z,3.75
2023-04-09T02:26:28.821Z,3.75
2023-04-09T02:27:16.508Z,3.70
2023-04-09T02:28:03.480Z,3.68
2023-04-09T02:28:51.159Z,3.75
2023-04-09T02:29:39.951Z,3.79
2023-04-09T02:30:26.825Z,3.78
2023-04-09T02:31:14.016Z,3.75
2023-04-09T02:32:01.298Z,3.67
2023-04-09T02:32:48.307Z,3.66
2023-04-09T02:33:35.480Z,3.65
2023-04-09T02:34:23.476Z,3.63
2023-04-09T02:35:10.500Z,3.60
2023-04-09T02:35:57.480Z,3.56
2023-04-09T02:36:44.443Z,3.54
2023-04-09T02:37:31.549Z,3.51
2023-04-09T02:38:18.769Z,3.50
2023-04-09T02:39:05.836Z,3.46
2023-04-09T02:39:52.819Z,3.51
2023-04-09T02:40:41.619Z,3.50
2023-04-09T02:41:28.547Z,3.55
2023-04-09T02:42:15.560Z,3.52
2023-04-09T02:43:02.547Z,3.47
2023-04-09T02:43:49.510Z,3.46
2023-04-09T02:44:36.510Z,3.47
2023-04-09T02:45:23.416Z,3.56
2023-04-09T02:46:10.527Z,3.44
2023-04-09T02:46:57.787Z,3.46
2023-04-09T02:47:44.926Z,3.47
2023-04-09T02:48:32.084Z,3.45
2023-04-09T02:49:19.272Z,3.38
2023-04-09T02:51:50.944Z,3.31
2023-04-09T02:52:37.928Z,3.38
2023-04-09T02:53:25.592Z,3.45
2023-04-09T02:54:12.563Z,3.40
2023-04-09T02:54:59.604Z,3.35
2023-04-09T02:55:46.646Z,3.32
2023-04-09T02:56:33.852Z,3.29
2023-04-09T02:57:20.911Z,3.26
2023-04-09T02:58:07.942Z,3.24
2023-04-09T02:58:55.639Z,3.25
2023-04-09T02:59:42.692Z,3.21
2023-04-09T03:00:29.593Z,3.22
2023-04-09T03:01:16.501Z,3.15
2023-04-09T03:02:03.596Z,3.09
2023-04-09T03:02:51.004Z,3.13
2023-04-09T03:03:40.352Z,3.18
2023-04-09T03:04:27.446Z,3.19
2023-04-09T03:05:14.391Z,3.08
2023-04-09T03:06:01.363Z,3.04
2023-04-09T03:06:48.604Z,3.06
2023-04-09T03:07:35.633Z,3.17
2023-04-09T03:08:22.593Z,3.10
2023-04-09T03:09:09.546Z,3.12
2023-04-09T03:09:56.556Z,3.17
2023-04-09T03:10:43.675Z,3.07
2023-04-09T03:11:30.614Z,2.99
2023-04-09T03:12:17.708Z,2.94
2023-04-09T03:13:04.620Z,3.02
2023-04-09T03:13:51.780Z,3.10
2023-04-09T03:14:38.714Z,3.13
2023-04-09T03:15:25.886Z,3.15
2023-04-09T03:16:12.875Z,3.10
2023-04-09T03:17:00.021Z,3.06
2023-04-09T03:17:47.273Z,3.12
2023-04-09T03:18:34.235Z,3.22
2023-04-09T03:19:21.307Z,3.09
2023-04-09T03:20:08.754Z,3.08
2023-04-09T03:20:55.805Z,2.99
2023-04-09T03:21:43.233Z,3.05
2023-04-09T03:22:30.442Z,3.14
2023-04-09T03:23:17.566Z,3.13
2023-04-09T03:25:44.056Z,3.15
2023-04-09T03:26:36.359Z,3.15
2023-04-09T03:27:23.789Z,3.13
2023-04-09T03:28:11.012Z,3.03
2023-04-09T03:28:58.080Z,3.06
2023-04-09T03:29:45.025Z,3.10
2023-04-09T03:30:32.080Z,3.22
2023-04-09T03:31:19.450Z,3.23
2023-04-09T03:32:06.611Z,3.26
2023-04-09T03:32:53.620Z,3.33
2023-04-09T03:33:40.696Z,3.27
2023-04-09T03:34:27.733Z,3.24
2023-04-09T03:35:14.789Z,3.19
2023-04-09T03:36:01.869Z,3.21
2023-04-09T03:36:49.141Z,3.22
2023-04-09T03:37:36.336Z,3.26
2023-04-09T03:38:23.333Z,3.28
2023-04-09T03:39:10.370Z,3.30
2023-04-09T03:39:57.351Z,3.23
2023-04-09T03:40:44.308Z,3.04
2023-04-09T03:41:31.393Z,3.04
2023-04-09T03:42:18.430Z,3.01
2023-04-09T03:43:05.576Z,3.08
2023-04-09T03:43:52.610Z,3.13
2023-04-09T03:44:39.599Z,3.19
2023-04-09T03:45:26.587Z,3.20
2023-04-09T03:46:17.097Z,3.17
2023-04-09T03:47:04.056Z,3.15
2023-04-09T03:47:51.598Z,3.06
2023-04-09T03:48:38.590Z,3.04
2023-04-09T03:49:25.729Z,3.11
2023-04-09T03:50:13.091Z,3.11
2023-04-09T03:51:00.030Z,3.09
2023-04-09T03:51:47.126Z,3.13
2023-04-09T03:52:34.216Z,3.22
2023-04-09T03:53:21.478Z,3.25
2023-04-09T03:54:08.499Z,3.31
2023-04-09T03:54:55.697Z,3.26
2023-04-09T03:55:42.774Z,3.22
2023-04-09T03:56:29.908Z,3.23
2023-04-09T03:57:16.985Z,3.21
2023-04-09T03:58:03.987Z,3.20
2023-04-09T03:58:51.194Z,3.17
2023-04-09T03:59:38.546Z,3.11
2023-04-09T04:00:25.591Z,3.18
2023-04-09T04:01:12.550Z,3.24
2023-04-09T04:01:59.592Z,3.25
2023-04-09T04:02:46.865Z,3.27
2023-04-09T04:03:34.396Z,3.21
2023-04-09T04:04:23.754Z,3.17
2023-04-09T04:05:11.960Z,3.14
2023-04-09T04:06:03.243Z,3.14
2023-04-09T04:06:50.294Z,3.15
2023-04-09T04:07:37.411Z,3.12
2023-04-09T04:08:24.475Z,3.14
2023-04-09T04:09:11.580Z,3.13
2023-04-09T04:09:58.681Z,3.12
2023-04-09T04:10:45.814Z,3.17
2023-04-09T04:11:33.055Z,3.22
2023-04-09T04:12:20.234Z,3.22
2023-04-09T04:13:08.881Z,3.23
2023-04-09T04:13:56.276Z,3.21
2023-04-09T04:14:43.256Z,3.23
2023-04-09T04:15:30.535Z,3.23
2023-04-09T04:16:17.555Z,3.27
2023-04-09T04:17:04.753Z,3.24
2023-04-09T04:17:51.688Z,3.24
2023-04-09T04:18:38.802Z,3.24
2023-04-09T04:19:25.963Z,3.26
2023-04-09T04:20:13.134Z,3.30
2023-04-09T04:21:00.210Z,3.32
2023-04-09T04:21:47.202Z,3.38
2023-04-09T04:22:35.802Z,3.36
2023-04-09T04:23:22.849Z,3.40
2023-04-09T04:24:09.887Z,3.40
2023-04-09T04:24:56.928Z,3.42
2023-04-09T04:25:44.153Z,3.42
2023-04-09T04:26:31.288Z,3.42
2023-04-09T04:27:18.384Z,3.34
2023-04-09T04:28:05.511Z,3.35
2023-04-09T04:28:52.717Z,3.36
2023-04-09T04:29:39.902Z,3.44
2023-04-09T04:30:26.891Z,3.44
2023-04-09T04:31:14.031Z,3.41
2023-04-09T04:32:01.107Z,3.38
2023-04-09T04:32:48.963Z,3.35
2023-04-09T04:33:36.134Z,3.39
2023-04-09T04:34:23.214Z,3.41
2023-04-09T04:35:10.336Z,3.47
2023-04-09T04:36:08.407Z,3.52
2023-04-09T04:36:55.655Z,3.48
2023-04-09T04:37:42.996Z,3.46
2023-04-09T04:38:30.028Z,3.49
2023-04-09T04:39:17.067Z,3.39
2023-04-09T04:40:05.694Z,3.38
2023-04-09T04:40:52.746Z,3.44
2023-04-09T04:41:39.888Z,3.51
2023-04-09T04:42:26.817Z,3.56
2023-04-09T04:43:13.897Z,3.54
2023-04-09T04:44:00.896Z,3.59
2023-04-09T04:44:48.024Z,3.56
2023-04-09T04:45:35.121Z,3.62
2023-04-09T04:46:22.281Z,3.65
2023-04-09T04:47:09.445Z,3.70
2023-04-09T04:47:56.545Z,3.66
2023-04-09T04:48:43.598Z,3.75
2023-04-09T04:49:31.848Z,3.70
2023-04-09T04:50:18.946Z,3.68
2023-04-09T04:51:06.026Z,3.64
2023-04-09T04:51:52.953Z,3.67
2023-04-09T04:52:40.765Z,3.72
2023-04-09T04:53:28.015Z,3.77
2023-04-09T04:54:15.213Z,3.76
2023-04-09T04:55:02.297Z,3.77
2023-04-09T04:55:49.354Z,3.83
2023-04-09T04:56:36.285Z,3.80
2023-04-09T04:57:23.389Z,3.84
2023-04-09T04:58:10.471Z,3.85
2023-04-09T04:58:57.494Z,3.91
2023-04-09T04:59:44.749Z,3.89
2023-04-09T05:00:32.404Z,3.93
2023-04-09T05:01:19.529Z,3.94
2023-04-09T05:02:07.621Z,3.96
2023-04-09T05:02:55.077Z,3.88
2023-04-09T05:03:42.262Z,3.93
2023-04-09T05:04:29.516Z,3.95
2023-04-09T05:05:16.925Z,3.99
2023-04-09T05:06:04.085Z,4.02
2023-04-09T05:06:51.281Z,4.06
2023-04-09T05:07:38.212Z,4.12
2023-04-09T05:08:25.306Z,4.12
2023-04-09T05:09:12.540Z,4.03
2023-04-09T05:09:59.526Z,4.06
2023-04-09T05:10:47.343Z,4.06
2023-04-09T05:11:34.484Z,4.07
2023-04-09T05:12:21.438Z,4.09
2023-04-09T05:13:08.352Z,4.09
2023-04-09T05:13:55.342Z,4.10
2023-04-09T05:14:42.325Z,4.14
2023-04-09T05:15:29.304Z,4.16
2023-04-09T05:16:18.508Z,4.18
2023-04-09T05:17:05.554Z,4.15
2023-04-09T05:17:53.030Z,4.15
2023-04-09T05:18:40.033Z,4.20
2023-04-09T05:19:27.115Z,4.19
2023-04-09T05:20:14.131Z,4.25
2023-04-09T05:21:01.131Z,4.16
2023-04-09T05:21:48.835Z,4.17
2023-04-09T05:22:36.657Z,4.19
2023-04-09T05:23:23.901Z,4.12
2023-04-09T05:24:11.403Z,4.17
2023-04-09T05:24:58.348Z,4.22
2023-04-09T05:25:45.726Z,4.26
2023-04-09T05:26:32.744Z,4.30
2023-04-09T05:27:21.197Z,4.27
2023-04-09T05:28:09.005Z,4.33
2023-04-09T05:28:56.754Z,4.36
2023-04-09T05:29:44.025Z,4.32
2023-04-09T05:30:31.507Z,4.28
2023-04-09T05:31:19.193Z,4.26
2023-04-09T05:32:07.277Z,3.99
2023-04-09T05:32:54.477Z,3.99
2023-04-09T05:33:42.526Z,4.15
2023-04-09T05:34:29.773Z,4.21
2023-04-09T05:35:16.790Z,4.27
2023-04-09T05:36:04.054Z,4.16
2023-04-09T05:36:51.386Z,4.23
2023-04-09T05:37:38.421Z,4.31
2023-04-09T05:38:25.425Z,4.33
2023-04-09T05:39:12.507Z,4.38
2023-04-09T05:39:59.586Z,4.40
2023-04-09T05:40:46.623Z,4.42
2023-04-09T05:41:33.997Z,4.40
2023-04-09T05:42:21.088Z,4.46
2023-04-09T05:43:08.202Z,4.51
2023-04-09T05:43:55.256Z,4.55
2023-04-09T05:44:42.229Z,4.62
2023-04-09T05:45:29.477Z,4.61
2023-04-09T05:46:16.524Z,4.60
2023-04-09T05:47:03.708Z,4.64
2023-04-09T05:47:51.244Z,4.71
2023-04-09T05:48:38.512Z,4.67
2023-04-09T05:49:26.119Z,4.69
2023-04-09T05:50:13.429Z,4.63
2023-04-09T05:51:01.090Z,4.67
2023-04-09T05:51:48.483Z,4.68
2023-04-09T05:52:35.600Z,4.78
2023-04-09T05:53:22.895Z,4.88
2023-04-09T05:54:10.440Z,4.90
2023-04-09T05:54:57.555Z,4.96
2023-04-09T05:55:44.689Z,5.05
2023-04-09T05:56:31.602Z,5.07
2023-04-09T05:57:18.822Z,5.06
2023-04-09T05:58:05.810Z,5.14
2023-04-09T05:58:53.068Z,5.12
2023-04-09T05:59:39.994Z,5.21
2023-04-09T06:00:27.212Z,5.18
2023-04-09T06:01:14.382Z,5.18
2023-04-09T06:02:01.482Z,5.23
2023-04-09T06:02:48.638Z,5.25
2023-04-09T06:03:35.795Z,5.29
2023-04-09T06:04:23.172Z,5.42
2023-04-09T06:05:10.384Z,5.50
2023-04-09T06:05:57.727Z,5.33
2023-04-09T06:06:44.924Z,5.39
2023-04-09T06:07:32.339Z,5.44
2023-04-09T06:08:19.699Z,5.32
2023-04-09T06:09:06.731Z,5.36
2023-04-09T06:09:55.248Z,5.46
2023-04-09T06:10:42.288Z,5.49
2023-04-09T06:11:29.414Z,5.40
2023-04-09T06:12:16.767Z,5.47
2023-04-09T06:13:03.796Z,5.60
2023-04-09T06:13:51.324Z,5.58
2023-04-09T06:14:38.460Z,5.65
2023-04-09T06:15:25.467Z,5.68
2023-04-09T06:16:12.482Z,5.84
2023-04-09T06:17:00.227Z,5.82
2023-04-09T06:17:47.283Z,5.90
2023-04-09T06:18:34.909Z,5.84
2023-04-09T06:19:22.631Z,5.82
2023-04-09T06:20:10.223Z,5.95
2023-04-09T06:21:08.179Z,5.96
2023-04-09T06:21:55.269Z,5.97
2023-04-09T06:22:42.308Z,6.01
2023-04-09T06:23:29.323Z,5.93
2023-04-09T06:24:16.631Z,6.12
2023-04-09T06:25:03.869Z,6.07
2023-04-09T06:25:50.948Z,6.14
2023-04-09T06:26:38.002Z,6.06
2023-04-09T06:27:25.088Z,5.93
2023-04-09T06:28:12.519Z,5.96
2023-04-09T06:28:59.569Z,5.88
2023-04-09T06:29:46.579Z,5.95
2023-04-09T06:30:33.690Z,5.95
2023-04-09T06:31:21.534Z,5.96
2023-04-09T06:32:08.581Z,5.91
2023-04-09T06:32:55.817Z,5.87
2023-04-09T06:33:42.985Z,5.90
2023-04-09T06:34:30.090Z,5.79
2023-04-09T06:35:17.178Z,5.80
2023-04-09T06:36:04.713Z,5.89
2023-04-09T06:36:51.826Z,5.95
2023-04-09T06:37:38.848Z,5.99
2023-04-09T06:38:25.866Z,6.05
2023-04-09T06:39:13.356Z,6.04
2023-04-09T06:40:01.525Z,6.04
2023-04-09T06:40:48.877Z,6.03
2023-04-09T06:41:35.990Z,5.97
2023-04-09T06:42:23.075Z,6.06
2023-04-09T06:43:10.285Z,6.16
2023-04-09T06:43:57.457Z,6.27
2023-04-09T06:44:44.518Z,6.25
2023-04-09T06:45:32.718Z,6.07
2023-04-09T06:46:21.501Z,6.18
2023-04-09T06:47:09.383Z,6.32
2023-04-09T06:47:56.407Z,6.29
2023-04-09T06:48:45.175Z,6.35
2023-04-09T06:49:32.156Z,6.29
2023-04-09T06:50:19.357Z,6.16
2023-04-09T06:51:07.760Z,6.02
2023-04-09T06:51:54.795Z,5.98
2023-04-09T06:52:42.496Z,6.05
2023-04-09T06:53:29.728Z,6.02
2023-04-09T06:54:16.991Z,5.96
2023-04-09T06:55:04.126Z,5.90
2023-04-09T06:55:51.648Z,5.97
2023-04-09T06:56:38.596Z,5.97
2023-04-09T06:57:26.730Z,6.05
2023-04-09T06:58:13.681Z,6.07
2023-04-09T06:59:00.668Z,6.13
2023-04-09T06:59:47.646Z,6.13
2023-04-09T07:00:34.758Z,6.20
2023-04-09T07:01:21.994Z,6.29
2023-04-09T07:02:09.549Z,6.41
2023-04-09T07:02:57.138Z,6.30
2023-04-09T07:03:44.519Z,6.41
2023-04-09T07:04:31.864Z,6.56
2023-04-09T07:05:19.318Z,6.57
2023-04-09T07:06:06.548Z,6.65
2023-04-09T07:06:55.156Z,6.64
2023-04-09T07:07:42.275Z,6.68
2023-04-09T07:08:29.386Z,6.71
2023-04-09T07:09:17.919Z,6.75
2023-04-09T07:10:06.497Z,6.63
2023-04-09T07:10:53.685Z,6.60
2023-04-09T07:11:40.737Z,6.56
2023-04-09T07:12:32.387Z,6.47
2023-04-09T07:13:19.358Z,6.41
2023-04-09T07:14:06.628Z,6.48
2023-04-09T07:14:53.715Z,6.56
2023-04-09T07:15:42.500Z,6.54
2023-04-09T07:16:29.698Z,6.68
2023-04-09T07:17:16.735Z,6.76
2023-04-09T07:18:04.009Z,6.87
2023-04-09T07:18:51.325Z,6.97
2023-04-09T07:19:38.396Z,7.06
2023-04-09T07:20:25.765Z,7.08
2023-04-09T07:21:12.954Z,7.21
2023-04-09T07:22:00.042Z,7.01
2023-04-09T07:22:47.175Z,7.19
2023-04-09T07:23:37.495Z,7.36
2023-04-09T07:24:24.716Z,7.45
2023-04-09T07:25:12.057Z,7.41
2023-04-09T07:25:59.116Z,7.48
2023-04-09T07:26:46.112Z,7.61
2023-04-09T07:27:33.535Z,7.78
2023-04-09T07:28:20.518Z,7.92
2023-04-09T07:29:08.232Z,8.04
2023-04-09T07:29:57.093Z,7.82
2023-04-09T07:30:46.527Z,7.86
2023-04-09T07:31:35.307Z,7.99
2023-04-09T07:32:23.671Z,7.98
2023-04-09T07:33:10.847Z,7.89
2023-04-09T07:33:57.783Z,8.06
2023-04-09T07:34:46.040Z,8.24
2023-04-09T07:35:34.925Z,8.29
2023-04-09T07:36:22.008Z,8.29
2023-04-09T07:37:09.307Z,8.17
2023-04-09T07:37:56.399Z,8.35
2023-04-09T07:38:43.444Z,8.41
2023-04-09T07:39:30.884Z,8.27
2023-04-09T07:40:18.142Z,8.15
2023-04-09T07:41:05.228Z,8.01
2023-04-09T07:41:53.116Z,8.10
2023-04-09T07:42:40.865Z,8.13
2023-04-09T07:43:27.795Z,7.94
2023-04-09T07:44:14.925Z,7.90
2023-04-09T07:45:03.696Z,7.92
2023-04-09T07:45:53.715Z,7.96
2023-04-09T07:46:41.824Z,7.93
2023-04-09T07:47:29.025Z,7.86
2023-04-09T07:48:16.914Z,7.84
2023-04-09T07:49:03.815Z,7.87
2023-04-09T07:49:50.780Z,7.90
2023-04-09T07:50:38.528Z,8.08
2023-04-09T07:51:25.975Z,8.09
2023-04-09T07:52:13.051Z,8.09
2023-04-09T07:53:00.341Z,8.23
2023-04-09T07:53:47.762Z,8.27
2023-04-09T07:54:35.694Z,8.30
2023-04-09T07:55:23.127Z,8.26
2023-04-09T07:56:10.277Z,8.16
2023-04-09T07:56:58.088Z,8.22
2023-04-09T07:57:45.523Z,8.04
2023-04-09T07:58:32.577Z,8.02
2023-04-09T07:59:19.614Z,8.02
2023-04-09T08:00:07.617Z,7.95
2023-04-09T08:00:54.794Z,8.01
2023-04-09T08:01:42.540Z,8.04
2023-04-09T08:02:30.157Z,7.87
2023-04-09T08:03:18.099Z,7.75
2023-04-09T08:04:05.794Z,7.73
2023-04-09T08:04:52.968Z,7.85
2023-04-09T08:05:40.559Z,7.80
2023-04-09T08:06:27.909Z,7.88
2023-04-09T08:07:14.827Z,8.03
2023-04-09T08:08:01.929Z,8.11
2023-04-09T08:08:48.843Z,7.94
2023-04-09T08:09:35.767Z,7.89
2023-04-09T08:10:23.111Z,7.90
2023-04-09T08:11:10.089Z,7.98
2023-04-09T08:11:57.528Z,8.09
2023-04-09T08:12:45.095Z,8.20
2023-04-09T08:13:32.126Z,8.18
2023-04-09T08:14:19.095Z,8.09
2023-04-09T08:15:06.801Z,8.37
2023-04-09T08:15:53.887Z,8.41
2023-04-09T08:16:42.962Z,8.53
2023-04-09T08:17:30.199Z,8.60
2023-04-09T08:18:17.311Z,8.55
2023-04-09T08:19:04.498Z,8.47
2023-04-09T08:19:51.473Z,8.32
2023-04-09T08:20:45.404Z,8.41
2023-04-09T08:21:32.632Z,8.20
2023-04-09T08:22:19.675Z,8.33
2023-04-09T08:23:06.657Z,8.53
2023-04-09T08:23:53.729Z,8.68
2023-04-09T08:24:40.845Z,8.92
2023-04-09T08:25:27.839Z,9.24
2023-04-09T08:26:14.840Z,9.58
2023-04-09T08:27:02.276Z,9.67
2023-04-09T08:27:49.227Z,9.65
2023-04-09T08:28:36.272Z,9.68
2023-04-09T08:29:23.316Z,9.81
2023-04-09T08:30:11.423Z,9.71
2023-04-09T08:30:58.687Z,9.87
2023-04-09T08:31:45.829Z,9.88
2023-04-09T08:32:32.922Z,9.88
2023-04-09T08:33:19.957Z,9.94
2023-04-09T08:34:07.468Z,9.93
2023-04-09T08:34:54.359Z,9.87
2023-04-09T08:35:41.838Z,9.80
2023-04-09T08:36:29.174Z,9.89
2023-04-09T08:37:16.905Z,9.91
2023-04-09T08:38:03.819Z,9.89
2023-04-09T08:38:50.936Z,9.96
2023-04-09T08:39:37.904Z,9.96
2023-04-09T08:40:25.135Z,9.78
2023-04-09T08:41:21.468Z,9.73
2023-04-09T08:42:09.118Z,9.87
2023-04-09T08:42:59.488Z,9.98
2023-04-09T08:44:41.237Z,10.02
2023-04-09T08:45:28.330Z,9.87
2023-04-09T08:46:18.914Z,10.01
2023-04-09T08:47:10.391Z,9.87
2023-04-09T08:48:00.914Z,9.68
2023-04-09T08:48:48.431Z,9.66
2023-04-09T08:49:35.840Z,9.55
2023-04-09T08:50:22.789Z,9.53
2023-04-09T08:51:17.358Z,9.47
2023-04-09T08:52:05.651Z,9.48
2023-04-09T08:52:53.791Z,9.65
2023-04-09T08:54:00.084Z,9.60
2023-04-09T08:54:48.761Z,9.55
2023-04-09T08:55:37.546Z,9.94
2023-04-09T08:56:24.925Z,9.85
2023-04-09T08:57:12.227Z,9.85
2023-04-09T08:57:59.388Z,9.92
2023-04-09T08:58:47.332Z,9.90
2023-04-09T08:59:38.130Z,10.03
2023-04-09T09:00:25.122Z,10.25
2023-04-09T09:01:31.240Z,10.26
2023-04-09T09:02:18.237Z,10.06
2023-04-09T09:03:10.531Z,10.13
2023-04-09T09:04:01.618Z,9.92
2023-04-09T09:04:50.133Z,10.06
2023-04-09T09:05:40.838Z,10.19
2023-04-09T09:06:29.450Z,10.07
2023-04-09T09:07:17.051Z,10.05
2023-04-09T09:08:04.190Z,10.20
2023-04-09T09:09:06.483Z,10.11
2023-04-09T09:09:55.199Z,10.01
2023-04-09T09:10:44.693Z,10.02
2023-04-09T09:11:31.797Z,9.94
2023-04-09T09:12:38.973Z,9.87
2023-04-09T09:13:27.676Z,9.78
2023-04-09T09:14:17.141Z,9.92
2023-04-09T09:15:05.047Z,9.96
2023-04-09T09:15:56.893Z,9.97
2023-04-09T09:17:08.794Z,9.88
2023-04-09T09:17:58.490Z,9.65
2023-04-09T09:18:45.778Z,9.33
2023-04-09T09:19:34.047Z,9.30
2023-04-09T09:20:21.786Z,9.19
2023-04-09T09:21:16.863Z,9.11
2023-04-09T09:22:06.609Z,8.83
2023-04-09T09:22:56.364Z,8.69
2023-04-09T09:23:44.025Z,8.68
2023-04-09T09:24:32.973Z,8.41
2023-04-09T09:25:23.936Z,8.47
2023-04-09T09:26:21.729Z,8.38
2023-04-09T09:27:08.806Z,8.44
2023-04-09T09:27:56.143Z,8.53
2023-04-09T09:28:44.062Z,8.50
2023-04-09T09:29:32.115Z,8.62
2023-04-09T09:30:24.176Z,8.57
2023-04-09T09:31:12.880Z,8.53
2023-04-09T09:32:01.114Z,8.61
2023-04-09T09:32:52.445Z,8.59
2023-04-09T09:33:40.450Z,8.47
2023-04-09T09:34:27.615Z,8.57
2023-04-09T09:35:14.658Z,8.79
2023-04-09T09:36:04.030Z,8.84
2023-04-09T09:36:51.384Z,8.69
2023-04-09T09:37:38.586Z,8.87
2023-04-09T09:38:25.879Z,8.93
2023-04-09T09:39:14.352Z,9.03
2023-04-09T09:40:03.193Z,9.03
2023-04-09T09:40:50.513Z,9.04
2023-04-09T09:41:38.337Z,9.11
2023-04-09T09:42:26.556Z,9.19
2023-04-09T09:43:14.877Z,9.17
2023-04-09T09:44:04.737Z,9.39
2023-04-09T09:44:52.018Z,9.30
2023-04-09T09:45:39.505Z,9.39
2023-04-09T09:46:27.461Z,9.49
2023-04-09T09:47:16.000Z,9.57
2023-04-09T09:48:04.382Z,9.61
2023-04-09T09:48:52.026Z,9.61
2023-04-09T09:49:39.765Z,9.46
2023-04-09T09:50:27.479Z,9.63
2023-04-09T09:51:15.868Z,9.75
2023-04-09T09:52:03.711Z,9.59
2023-04-09T09:52:51.425Z,9.34
2023-04-09T09:53:39.137Z,9.16
2023-04-09T09:54:27.397Z,9.33
2023-04-09T09:55:15.797Z,9.46
2023-04-09T09:56:05.729Z,9.74
2023-04-09T09:56:53.315Z,9.86
2023-04-09T09:57:42.923Z,9.70
2023-04-09T09:58:34.567Z,9.72
2023-04-09T09:59:23.491Z,9.83
2023-04-09T10:00:12.811Z,9.84
2023-04-09T10:01:01.388Z,9.69
2023-04-09T10:01:48.938Z,9.70
2023-04-09T10:02:43.406Z,9.70
2023-04-09T10:03:32.424Z,9.47
2023-04-09T10:04:20.970Z,9.47
2023-04-09T10:05:09.715Z,9.37
2023-04-09T10:05:58.862Z,9.26
2023-04-09T10:06:46.446Z,9.43
2023-04-09T10:07:33.537Z,9.44
2023-04-09T10:08:22.410Z,9.61
2023-04-09T10:09:09.566Z,9.74
2023-04-09T10:09:57.887Z,9.80
2023-04-09T10:10:45.325Z,9.65
2023-04-09T10:11:34.322Z,9.50
2023-04-09T10:12:25.676Z,9.42
2023-04-09T10:13:34.794Z,9.64
2023-04-09T10:14:22.756Z,9.85
2023-04-09T10:15:10.062Z,9.82
2023-04-09T10:15:57.931Z,9.88
2023-04-09T10:16:45.203Z,9.88
2023-04-09T10:17:33.091Z,9.67
2023-04-09T10:18:20.392Z,9.67
2023-04-09T10:19:13.589Z,9.62
2023-04-09T10:20:32.954Z,9.50
2023-04-09T10:21:38.812Z,9.69
2023-04-09T10:22:27.502Z,9.82
2023-04-09T10:23:22.485Z,9.82
2023-04-09T10:24:09.796Z,9.74
2023-04-09T10:24:58.234Z,9.67
2023-04-09T10:25:45.360Z,9.71
2023-04-09T10:26:36.595Z,9.70
2023-04-09T10:27:23.616Z,9.63
2023-04-09T10:28:19.759Z,9.55
2023-04-09T10:29:08.564Z,9.24
2023-04-09T10:29:55.592Z,9.09
2023-04-09T10:30:44.019Z,9.12
2023-04-09T10:31:46.526Z,8.87
2023-04-09T10:32:36.535Z,8.76
2023-04-09T10:33:28.393Z,8.76
2023-04-09T10:34:28.234Z,8.52
2023-04-09T10:35:26.936Z,8.36
2023-04-09T10:36:13.995Z,8.54
2023-04-09T10:37:01.139Z,8.48
2023-04-09T10:37:50.877Z,8.20
2023-04-09T10:38:42.562Z,8.23
2023-04-09T10:39:32.298Z,8.18
2023-04-09T10:40:21.826Z,8.12
2023-04-09T10:41:15.868Z,7.87
2023-04-09T10:42:09.403Z,7.90
2023-04-09T10:42:57.887Z,7.94
2023-04-09T10:43:47.804Z,7.98
2023-04-09T10:44:38.357Z,8.21
2023-04-09T10:45:26.801Z,8.29
2023-04-09T10:46:31.140Z,8.48
2023-04-09T10:47:34.400Z,8.67
2023-04-09T10:48:26.869Z,8.81
2023-04-09T10:49:19.075Z,8.83
2023-04-09T10:50:26.097Z,9.09